Time;durP1;ratioP1;P1;durP2;ratioP2;P2;SDS_P1;SDS_P2;PMS_P1;PMS_P2;Temp;Humidity;BMP_temperature;BMP_pressure;BME280_temperature;BME280_humidity;BME280_pressure;Samples;Min_cycle;Max_cycle;Signal;HPM_P1;HPM_P2
2023/07/22 00:00:16;;;;;;;23.85;10.90;;;13.70;99.90;;;;;;5041719;28;20444;-71
2023/07/22 00:02:42;;;;;;;19.10;10.75;;;13.70;99.90;;;;;;5041966;28;20047;-69
2023/07/22 00:05:10;;;;;;;20.98;10.95;;;13.70;99.90;;;;;;5042024;28;20025;-71
2023/07/22 00:07:36;;;;;;;21.80;11.45;;;13.70;99.90;;;;;;5041469;28;20089;-69
2023/07/22 00:10:02;;;;;;;18.63;11.13;;;13.60;99.90;;;;;;5041512;28;20049;-70
2023/07/22 00:12:27;;;;;;;21.90;11.00;;;13.60;99.90;;;;;;5042075;28;20033;-70
2023/07/22 00:14:53;;;;;;;19.98;10.52;;;13.60;99.90;;;;;;5041899;28;20029;-70
2023/07/22 00:17:20;;;;;;;21.30;10.82;;;13.60;99.90;;;;;;5041626;28;20049;-70
2023/07/22 00:19:47;;;;;;;23.73;10.60;;;13.60;99.90;;;;;;5041866;28;20021;-71
2023/07/22 00:22:14;;;;;;;21.13;10.02;;;13.50;99.90;;;;;;5041844;28;20679;-70
2023/07/22 00:24:40;;;;;;;19.70;9.07;;;13.50;99.90;;;;;;5041133;28;20021;-68
2023/07/22 00:27:08;;;;;;;18.80;10.35;;;13.50;99.90;;;;;;5041846;28;20021;-69
2023/07/22 00:29:34;;;;;;;19.70;10.48;;;13.50;99.90;;;;;;5041512;28;20034;-70
2023/07/22 00:32:00;;;;;;;16.67;9.18;;;13.50;99.90;;;;;;5040123;28;20029;-70
2023/07/22 00:34:26;;;;;;;23.88;9.80;;;13.40;99.90;;;;;;5040364;28;20028;-70
2023/07/22 00:36:51;;;;;;;18.92;9.25;;;13.40;99.90;;;;;;5041429;28;20508;-69
2023/07/22 00:39:18;;;;;;;23.50;10.05;;;13.40;99.90;;;;;;5041572;28;20021;-70
2023/07/22 00:41:44;;;;;;;20.50;9.75;;;13.40;99.90;;;;;;5041706;28;20112;-72
2023/07/22 00:44:12;;;;;;;19.65;9.75;;;13.40;99.90;;;;;;5042557;28;20534;-70
2023/07/22 00:46:38;;;;;;;18.17;8.50;;;13.40;99.90;;;;;;5044258;28;20121;-70
2023/07/22 00:49:07;;;;;;;19.00;9.30;;;13.30;99.90;;;;;;5045624;28;20699;-69
2023/07/22 00:51:33;;;;;;;18.10;9.73;;;13.30;99.90;;;;;;5044694;28;20423;-71
2023/07/22 00:53:58;;;;;;;20.05;9.32;;;13.30;99.90;;;;;;5044096;28;20045;-69
2023/07/22 00:56:24;;;;;;;19.10;8.93;;;13.30;99.90;;;;;;5045253;28;20021;-69
2023/07/22 00:58:50;;;;;;;18.50;9.20;;;13.30;99.90;;;;;;5045153;28;20486;-69
2023/07/22 01:01:16;;;;;;;19.23;8.85;;;13.30;99.90;;;;;;5045368;28;20120;-70
2023/07/22 01:03:42;;;;;;;20.33;9.80;;;13.30;99.90;;;;;;5045668;28;20383;-69
2023/07/22 01:06:09;;;;;;;17.92;8.65;;;13.30;99.90;;;;;;5043457;28;20034;-70
2023/07/22 01:08:35;;;;;;;19.67;8.65;;;13.30;99.90;;;;;;5045159;28;20030;-71
2023/07/22 01:11:00;;;;;;;20.25;9.52;;;13.20;99.90;;;;;;5044975;28;20048;-70
2023/07/22 01:13:26;;;;;;;18.90;8.95;;;13.20;99.90;;;;;;5043660;28;20040;-68
2023/07/22 01:15:52;;;;;;;19.67;9.18;;;13.20;99.90;;;;;;5045178;28;20554;-71
2023/07/22 01:18:18;;;;;;;16.42;9.00;;;13.20;99.90;;;;;;5043894;28;20085;-72
2023/07/22 01:20:45;;;;;;;19.90;9.23;;;13.10;99.90;;;;;;5044006;28;20053;-69
2023/07/22 01:23:11;;;;;;;21.42;9.30;;;13.10;99.90;;;;;;5044620;28;20022;-70
2023/07/22 01:25:37;;;;;;;26.25;9.75;;;13.00;99.90;;;;;;5044660;28;20036;-71
2023/07/22 01:28:03;;;;;;;22.38;9.25;;;13.00;99.90;;;;;;5044459;28;20060;-70
2023/07/22 01:30:28;;;;;;;18.20;9.60;;;13.00;99.90;;;;;;5043468;28;20140;-69
2023/07/22 01:32:54;;;;;;;20.48;9.23;;;13.00;99.90;;;;;;5042147;28;20037;-70
2023/07/22 01:35:20;;;;;;;21.85;9.32;;;13.00;99.90;;;;;;5042884;28;20134;-69
2023/07/22 01:37:46;;;;;;;20.70;9.60;;;13.00;99.90;;;;;;5044154;28;20056;-70
2023/07/22 01:40:12;;;;;;;21.35;8.70;;;13.00;99.90;;;;;;5044392;28;20021;-70
2023/07/22 01:42:42;;;;;;;20.10;10.48;;;13.00;99.90;;;;;;5044376;28;20052;-70
2023/07/22 01:45:08;;;;;;;25.08;9.48;;;12.90;99.90;;;;;;5044225;28;20022;-69
2023/07/22 01:47:38;;;;;;;21.27;9.75;;;12.90;99.90;;;;;;5044024;28;20040;-70
2023/07/22 01:50:08;;;;;;;24.70;9.30;;;13.00;99.90;;;;;;5044102;28;20093;-72
2023/07/22 01:52:34;;;;;;;22.92;9.38;;;12.90;99.90;;;;;;5043755;28;20051;-69
2023/07/22 01:54:59;;;;;;;24.85;9.32;;;12.90;99.90;;;;;;5041689;28;20120;-71
2023/07/22 01:57:25;;;;;;;19.23;8.85;;;12.90;99.90;;;;;;5043064;28;20037;-70
2023/07/22 01:59:51;;;;;;;24.92;9.52;;;12.90;99.90;;;;;;5044124;28;20013;-69
2023/07/22 02:02:16;;;;;;;26.63;9.25;;;12.80;99.90;;;;;;5043343;28;20032;-71
2023/07/22 02:04:42;;;;;;;23.70;9.52;;;12.80;99.90;;;;;;5044413;28;20025;-70
2023/07/22 02:07:08;;;;;;;19.38;9.02;;;12.80;99.90;;;;;;5043608;28;20100;-70
2023/07/22 02:09:34;;;;;;;22.05;9.60;;;12.80;99.90;;;;;;5043724;28;20022;-70
2023/07/22 02:12:00;;;;;;;24.45;9.60;;;12.80;99.90;;;;;;5042635;28;20086;-72
2023/07/22 02:14:25;;;;;;;21.90;8.98;;;12.80;99.90;;;;;;5043959;28;20029;-69
2023/07/22 02:16:51;;;;;;;22.52;9.27;;;12.80;99.90;;;;;;5043599;28;20404;-71
2023/07/22 02:19:16;;;;;;;25.75;10.18;;;12.70;99.90;;;;;;5043983;28;20049;-71
2023/07/22 02:21:42;;;;;;;22.13;9.45;;;12.70;99.90;;;;;;5043619;28;20041;-71
2023/07/22 02:24:09;;;;;;;20.58;9.20;;;12.70;99.90;;;;;;5043927;28;20031;-72
2023/07/22 02:26:35;;;;;;;26.40;9.65;;;12.70;99.90;;;;;;5043317;28;20056;-70
2023/07/22 02:29:00;;;;;;;23.95;9.50;;;12.70;99.90;;;;;;5043358;28;20386;-70
2023/07/22 02:31:26;;;;;;;21.25;9.70;;;12.70;99.90;;;;;;5043611;28;20066;-70
2023/07/22 02:33:51;;;;;;;22.63;9.50;;;12.60;99.90;;;;;;5043434;28;20029;-70
2023/07/22 02:36:17;;;;;;;20.52;9.23;;;12.60;99.90;;;;;;5043455;28;20099;-73
2023/07/22 02:38:43;;;;;;;21.83;9.23;;;12.60;99.90;;;;;;5043490;28;20053;-70
2023/07/22 02:41:08;;;;;;;28.52;9.68;;;12.60;99.90;;;;;;5043580;28;20123;-70
2023/07/22 02:43:35;;;;;;;24.50;10.02;;;12.60;99.90;;;;;;5043074;28;20450;-71
2023/07/22 02:46:07;;;;;;;23.25;9.60;;;12.50;99.90;;;;;;5043253;28;20029;-72
2023/07/22 02:48:33;;;;;;;25.33;9.35;;;12.60;99.90;;;;;;5042894;28;20060;-70
2023/07/22 02:51:09;;;;;;;25.27;9.43;;;12.60;99.90;;;;;;5042770;28;20422;-70
2023/07/22 02:53:38;;;;;;;19.65;9.07;;;12.50;99.90;;;;;;5043294;28;20051;-69
2023/07/22 02:56:07;;;;;;;22.20;9.63;;;12.50;99.90;;;;;;5041546;28;20030;-69
2023/07/22 02:58:33;;;;;;;25.42;9.10;;;12.50;99.90;;;;;;5042501;28;20060;-69
2023/07/22 03:00:59;;;;;;;24.77;10.10;;;12.50;99.90;;;;;;5042469;28;20048;-69
2023/07/22 03:03:25;;;;;;;22.90;9.32;;;12.50;99.90;;;;;;5043059;28;20045;-70
2023/07/22 03:05:51;;;;;;;23.48;8.85;;;12.50;99.90;;;;;;5042730;28;20485;-69
2023/07/22 03:08:19;;;;;;;22.38;8.80;;;12.40;99.90;;;;;;5043083;28;20076;-71
2023/07/22 03:10:48;;;;;;;24.85;9.05;;;12.40;99.90;;;;;;5042976;28;20028;-71
2023/07/22 03:13:17;;;;;;;23.42;9.77;;;12.40;99.90;;;;;;5042087;28;20045;-70
2023/07/22 03:15:44;;;;;;;21.02;9.50;;;12.40;99.90;;;;;;5042576;28;20021;-72
2023/07/22 03:18:10;;;;;;;25.90;9.30;;;12.40;99.90;;;;;;5041500;28;20061;-70
2023/07/22 03:20:40;;;;;;;23.15;9.27;;;12.40;99.90;;;;;;5042357;28;20045;-71
2023/07/22 03:23:06;;;;;;;20.02;9.00;;;12.30;99.90;;;;;;5042222;28;20060;-69
2023/07/22 03:25:34;;;;;;;22.25;9.55;;;12.30;99.90;;;;;;5042407;28;20040;-70
2023/07/22 03:28:03;;;;;;;26.33;10.15;;;12.30;99.90;;;;;;5042185;28;20041;-69
2023/07/22 03:30:29;;;;;;;24.95;9.05;;;12.30;99.90;;;;;;5042088;28;20390;-69
2023/07/22 03:32:55;;;;;;;25.05;9.15;;;12.30;99.90;;;;;;5042438;28;20026;-70
2023/07/22 03:35:20;;;;;;;21.20;9.82;;;12.30;99.90;;;;;;5042137;28;20074;-69
2023/07/22 03:37:46;;;;;;;26.30;10.02;;;12.30;99.90;;;;;;5042729;28;20049;-70
2023/07/22 03:40:26;;;;;;;23.63;9.23;;;12.20;99.90;;;;;;5041866;28;20083;-71
2023/07/22 03:42:54;;;;;;;21.48;9.45;;;12.20;99.90;;;;;;5042253;28;20026;-71
2023/07/22 03:45:21;;;;;;;27.27;9.27;;;12.10;99.90;;;;;;5041862;28;20022;-70
2023/07/22 03:47:52;;;;;;;21.08;8.35;;;12.20;99.90;;;;;;5042047;28;20036;-70
2023/07/22 03:50:18;;;;;;;23.42;8.65;;;12.20;99.90;;;;;;5042086;28;20029;-69
2023/07/22 03:52:44;;;;;;;28.58;9.32;;;12.20;99.90;;;;;;5042083;28;20052;-70
2023/07/22 03:55:09;;;;;;;24.38;10.00;;;12.20;99.90;;;;;;5042075;28;20036;-71
2023/07/22 03:57:36;;;;;;;25.45;9.20;;;12.20;99.90;;;;;;5041888;28;20025;-69
2023/07/22 04:00:03;;;;;;;21.52;8.98;;;12.20;99.90;;;;;;5040831;28;20075;-69
2023/07/22 04:02:28;;;;;;;20.85;9.10;;;12.20;99.90;;;;;;5041796;28;20060;-70
2023/07/22 04:04:55;;;;;;;30.98;9.90;;;12.20;99.90;;;;;;5041994;28;20028;-69
2023/07/22 04:07:21;;;;;;;26.85;9.70;;;12.20;99.90;;;;;;5040780;28;20098;-69
2023/07/22 04:09:48;;;;;;;21.52;8.90;;;12.20;99.90;;;;;;5038472;28;20026;-68
2023/07/22 04:12:13;;;;;;;24.90;9.27;;;12.20;99.90;;;;;;5041282;28;20056;-69
2023/07/22 04:14:40;;;;;;;21.55;8.82;;;12.20;99.90;;;;;;5041947;28;20025;-67
2023/07/22 04:17:06;;;;;;;23.33;9.50;;;12.20;99.90;;;;;;5041199;28;20017;-68
2023/07/22 04:19:31;;;;;;;22.88;8.63;;;12.20;99.90;;;;;;5041323;28;20068;-70
2023/07/22 04:21:57;;;;;;;26.85;9.70;;;12.20;99.90;;;;;;5041497;28;20034;-68
2023/07/22 04:24:24;;;;;;;24.40;9.70;;;12.10;99.90;;;;;;5041492;28;20029;-67
2023/07/22 04:26:50;;;;;;;23.10;9.40;;;12.20;99.90;;;;;;5041970;28;20032;-68
2023/07/22 04:29:16;;;;;;;23.85;9.45;;;12.20;99.90;;;;;;5041527;28;20101;-69
2023/07/22 04:31:42;;;;;;;25.60;9.70;;;12.20;99.90;;;;;;5040408;28;20052;-70
2023/07/22 04:34:11;;;;;;;27.67;9.23;;;12.20;99.90;;;;;;5041275;28;20386;-70
2023/07/22 04:36:36;;;;;;;30.58;9.88;;;12.30;99.90;;;;;;5040888;28;20041;-68
2023/07/22 04:39:05;;;;;;;28.80;9.10;;;12.30;99.90;;;;;;5041745;28;20042;-69
2023/07/22 04:41:31;;;;;;;21.77;8.52;;;12.30;99.90;;;;;;5041670;28;20044;-70
2023/07/22 04:43:58;;;;;;;25.58;9.32;;;12.30;99.90;;;;;;5041340;28;20045;-73
2023/07/22 04:46:25;;;;;;;25.25;9.70;;;12.40;99.90;;;;;;5041154;28;20026;-70
2023/07/22 04:48:53;;;;;;;21.13;9.00;;;12.40;99.90;;;;;;5040888;28;20057;-68
2023/07/22 04:51:19;;;;;;;25.35;8.88;;;12.40;99.90;;;;;;5040883;28;20444;-68
2023/07/22 04:53:45;;;;;;;28.98;9.02;;;12.40;99.90;;;;;;5041722;28;20085;-70
2023/07/22 04:56:10;;;;;;;19.80;8.40;;;12.40;99.90;;;;;;5041660;28;20042;-68
2023/07/22 04:58:36;;;;;;;21.40;7.97;;;12.40;99.90;;;;;;5041126;28;20029;-68
2023/07/22 05:01:01;;;;;;;17.67;7.97;;;12.50;99.90;;;;;;5037445;28;20140;-68
2023/07/22 05:03:27;;;;;;;19.45;8.43;;;12.50;99.90;;;;;;5041502;28;20040;-69
2023/07/22 05:05:53;;;;;;;24.83;8.82;;;12.60;99.90;;;;;;5040986;28;20056;-68
2023/07/22 05:08:18;;;;;;;18.33;7.80;;;12.70;99.90;;;;;;5040510;28;20030;-67
2023/07/22 05:10:44;;;;;;;18.40;8.20;;;12.70;99.90;;;;;;5041467;28;20057;-68
2023/07/22 05:13:10;;;;;;;24.52;8.27;;;12.70;99.90;;;;;;5041344;28;20026;-67
2023/07/22 05:15:35;;;;;;;20.42;8.13;;;12.80;99.90;;;;;;5040929;28;20037;-67
2023/07/22 05:18:01;;;;;;;17.75;8.00;;;12.80;99.90;;;;;;5039267;28;20038;-68
2023/07/22 05:20:26;;;;;;;19.25;7.85;;;12.80;99.90;;;;;;5038286;28;21597;-67
2023/07/22 05:22:52;;;;;;;21.38;8.90;;;12.90;99.90;;;;;;5040191;28;20030;-68
2023/07/22 05:25:18;;;;;;;18.10;8.18;;;12.90;99.90;;;;;;5040310;28;20033;-71
2023/07/22 05:27:43;;;;;;;19.63;7.93;;;13.00;99.90;;;;;;5041291;28;20025;-69
2023/07/22 05:30:10;;;;;;;17.48;7.45;;;13.00;99.90;;;;;;5041389;28;20112;-67
2023/07/22 05:32:36;;;;;;;17.30;8.00;;;13.00;99.90;;;;;;5044246;28;20021;-67
2023/07/22 05:35:04;;;;;;;24.40;8.02;;;13.10;99.90;;;;;;5044141;28;20040;-68
2023/07/22 05:37:29;;;;;;;18.98;7.90;;;13.10;99.90;;;;;;5044453;28;20018;-68
2023/07/22 05:39:55;;;;;;;16.73;7.22;;;13.20;99.90;;;;;;5044366;28;20029;-68
2023/07/22 05:42:20;;;;;;;17.92;7.40;;;13.20;99.90;;;;;;5043915;28;20030;-69
2023/07/22 05:44:46;;;;;;;17.63;7.88;;;13.20;99.90;;;;;;5044693;28;20080;-69
2023/07/22 05:47:11;;;;;;;19.38;8.13;;;13.30;99.90;;;;;;5044172;28;20025;-68
2023/07/22 05:49:37;;;;;;;19.58;7.65;;;13.30;99.90;;;;;;5043084;28;20434;-67
2023/07/22 05:52:03;;;;;;;19.63;7.78;;;13.40;99.90;;;;;;5043195;28;20050;-68
2023/07/22 05:54:28;;;;;;;18.17;7.25;;;13.40;99.90;;;;;;5042700;28;20036;-68
2023/07/22 05:56:54;;;;;;;17.40;7.10;;;13.50;99.90;;;;;;5044548;28;20026;-67
2023/07/22 05:59:20;;;;;;;20.95;7.07;;;13.50;99.90;;;;;;5044350;28;20091;-68
2023/07/22 06:01:45;;;;;;;16.60;6.30;;;13.50;99.90;;;;;;5044063;28;20041;-68
2023/07/22 06:04:11;;;;;;;20.42;7.25;;;13.60;99.90;;;;;;5044357;28;20025;-68
2023/07/22 06:06:36;;;;;;;14.25;6.57;;;13.70;99.90;;;;;;5044191;28;20076;-67
2023/07/22 06:09:02;;;;;;;17.17;6.82;;;13.70;99.90;;;;;;5044024;28;20025;-67
2023/07/22 06:11:28;;;;;;;12.35;6.00;;;13.80;99.90;;;;;;5043416;28;20022;-67
2023/07/22 06:13:54;;;;;;;16.02;6.80;;;13.90;99.90;;;;;;5043494;28;20021;-67
2023/07/22 06:16:19;;;;;;;13.30;5.88;;;13.90;99.90;;;;;;5043131;28;20036;-68
2023/07/22 06:18:45;;;;;;;16.52;6.25;;;14.00;99.90;;;;;;5042188;28;20033;-69
2023/07/22 06:21:11;;;;;;;10.38;5.07;;;14.10;99.90;;;;;;5043779;28;20120;-68
2023/07/22 06:23:36;;;;;;;15.27;5.07;;;14.10;99.90;;;;;;5042847;28;20088;-67
2023/07/22 06:26:02;;;;;;;13.90;5.55;;;14.10;99.90;;;;;;5043866;28;20033;-68
2023/07/22 06:28:28;;;;;;;11.80;5.13;;;14.20;99.90;;;;;;5043499;28;20044;-69
2023/07/22 06:30:53;;;;;;;12.40;5.22;;;14.30;99.90;;;;;;5043346;28;20030;-69
2023/07/22 06:33:19;;;;;;;10.73;4.90;;;14.40;99.90;;;;;;5043924;28;20132;-68
2023/07/22 06:35:44;;;;;;;10.23;4.57;;;14.40;99.90;;;;;;5043428;28;20112;-71
2023/07/22 06:38:10;;;;;;;10.93;4.60;;;14.50;99.90;;;;;;5043586;28;20032;-67
2023/07/22 06:40:35;;;;;;;11.65;4.53;;;14.50;99.90;;;;;;5041672;28;20067;-68
2023/07/22 06:43:01;;;;;;;11.90;4.68;;;14.60;99.90;;;;;;5041494;28;20084;-67
2023/07/22 06:45:27;;;;;;;10.30;4.32;;;14.60;99.90;;;;;;5042053;28;20053;-68
2023/07/22 06:47:53;;;;;;;8.93;3.78;;;14.70;99.90;;;;;;5040639;28;20048;-69
2023/07/22 06:50:18;;;;;;;11.35;4.20;;;14.70;99.90;;;;;;5043195;28;20026;-69
2023/07/22 06:52:44;;;;;;;13.82;4.38;;;14.80;99.90;;;;;;5043624;28;20473;-69
2023/07/22 06:55:10;;;;;;;7.20;3.67;;;14.90;99.90;;;;;;5043342;28;20033;-70
2023/07/22 06:57:36;;;;;;;8.90;3.97;;;14.90;99.90;;;;;;5043059;28;20029;-68
2023/07/22 07:00:02;;;;;;;8.70;3.30;;;15.00;99.90;;;;;;5042699;28;20075;-73
2023/07/22 07:02:28;;;;;;;9.77;4.28;;;15.00;99.90;;;;;;5043714;28;20052;-68
2023/07/22 07:04:53;;;;;;;7.90;3.30;;;15.10;99.90;;;;;;5042094;28;20029;-68
2023/07/22 07:07:19;;;;;;;10.07;3.10;;;15.20;99.90;;;;;;5042045;28;20053;-67
2023/07/22 07:09:45;;;;;;;6.95;2.90;;;15.30;99.90;;;;;;5042335;28;20405;-69
2023/07/22 07:12:10;;;;;;;9.38;3.13;;;15.40;99.90;;;;;;5042891;28;20477;-68
2023/07/22 07:14:36;;;;;;;6.50;2.78;;;15.50;99.90;;;;;;5042999;28;20044;-67
2023/07/22 07:17:02;;;;;;;9.57;3.50;;;15.50;99.90;;;;;;5041254;28;20037;-67
2023/07/22 07:19:28;;;;;;;4.03;2.40;;;15.60;99.90;;;;;;5041170;28;20655;-67
2023/07/22 07:21:53;;;;;;;5.07;2.60;;;15.70;99.90;;;;;;5042253;28;20033;-68
2023/07/22 07:24:19;;;;;;;5.95;2.90;;;15.70;99.90;;;;;;5042832;28;20029;-69
2023/07/22 07:26:45;;;;;;;7.72;3.20;;;15.80;99.90;;;;;;5042402;28;20021;-68
2023/07/22 07:29:11;;;;;;;4.72;2.35;;;15.80;99.90;;;;;;5037220;28;20771;-67
2023/07/22 07:31:37;;;;;;;4.00;2.30;;;15.90;99.90;;;;;;5040620;28;20026;-68
2023/07/22 07:34:03;;;;;;;7.18;2.90;;;16.00;99.90;;;;;;5041620;28;20041;-68
2023/07/22 07:36:29;;;;;;;6.72;2.40;;;16.00;99.90;;;;;;5042044;28;20036;-66
2023/07/22 07:38:54;;;;;;;6.00;2.20;;;16.00;99.90;;;;;;5040570;28;20059;-69
2023/07/22 07:41:21;;;;;;;4.72;2.25;;;16.00;99.90;;;;;;5039182;28;20046;-68
2023/07/22 07:43:47;;;;;;;4.50;2.47;;;16.00;99.90;;;;;;5042196;28;20052;-68
2023/07/22 07:46:25;;;;;;;7.32;2.80;;;16.00;99.90;;;;;;5038506;28;20538;-68
2023/07/22 07:48:55;;;;;;;6.07;2.70;;;16.20;99.90;;;;;;5041256;28;20028;-69
2023/07/22 07:51:23;;;;;;;7.68;3.00;;;16.30;99.90;;;;;;5040078;28;20038;-69
2023/07/22 07:53:49;;;;;;;6.50;2.70;;;16.30;99.90;;;;;;5040061;28;20034;-68
2023/07/22 07:56:18;;;;;;;5.90;3.00;;;16.50;99.90;;;;;;5041377;28;20037;-69
2023/07/22 07:58:45;;;;;;;8.68;2.67;;;16.50;99.90;;;;;;5040196;28;20029;-69
2023/07/22 08:01:11;;;;;;;11.80;3.60;;;16.60;99.90;;;;;;5041711;28;20060;-68
2023/07/22 08:03:38;;;;;;;7.57;3.20;;;16.70;99.90;;;;;;5040115;28;20071;-69
2023/07/22 08:06:04;;;;;;;8.07;2.72;;;16.70;99.90;;;;;;5040950;28;20031;-69
2023/07/22 08:08:30;;;;;;;6.45;2.80;;;16.80;99.90;;;;;;5040757;28;20052;-69
2023/07/22 08:10:59;;;;;;;9.35;2.53;;;16.80;99.90;;;;;;5039064;28;20049;-70
2023/07/22 08:13:24;;;;;;;8.45;2.88;;;16.80;99.90;;;;;;5038602;28;20033;-70
2023/07/22 08:15:51;;;;;;;4.40;2.47;;;16.80;99.90;;;;;;5039729;28;20040;-71
2023/07/22 08:18:16;;;;;;;6.07;2.85;;;16.80;99.90;;;;;;5041662;28;20017;-72
2023/07/22 08:20:42;;;;;;;4.45;2.55;;;16.80;99.90;;;;;;5040656;28;20056;-68
2023/07/22 08:23:07;;;;;;;7.47;2.80;;;16.90;99.90;;;;;;5040356;28;20721;-68
2023/07/22 08:25:33;;;;;;;4.50;2.80;;;16.80;99.90;;;;;;5040823;28;20171;-69
2023/07/22 08:27:59;;;;;;;9.25;3.15;;;16.80;99.90;;;;;;5039838;28;20029;-69
2023/07/22 08:30:25;;;;;;;6.25;2.80;;;16.80;99.90;;;;;;5041613;28;20056;-67
2023/07/22 08:32:51;;;;;;;7.03;3.45;;;16.80;99.90;;;;;;5040052;28;20037;-72
2023/07/22 08:35:17;;;;;;;8.18;3.55;;;16.80;99.90;;;;;;5039769;28;20025;-69
2023/07/22 08:37:43;;;;;;;8.20;3.38;;;16.80;99.90;;;;;;5041368;28;20025;-69
2023/07/22 08:40:10;;;;;;;8.85;3.28;;;16.90;99.90;;;;;;5040555;28;20086;-69
2023/07/22 08:42:37;;;;;;;7.72;3.65;;;17.00;99.90;;;;;;5040726;28;20045;-69
2023/07/22 08:45:05;;;;;;;8.38;3.40;;;17.10;99.90;;;;;;5039861;28;20061;-69
2023/07/22 08:47:32;;;;;;;9.95;3.40;;;17.20;99.90;;;;;;5039168;28;20026;-68
2023/07/22 08:50:02;;;;;;;7.63;3.67;;;17.30;99.90;;;;;;5041432;28;20094;-69
2023/07/22 08:52:27;;;;;;;7.93;3.72;;;17.30;99.90;;;;;;5040678;28;20038;-68
2023/07/22 08:54:54;;;;;;;8.80;3.72;;;17.30;99.90;;;;;;5041034;28;20032;-71
2023/07/22 08:57:21;;;;;;;8.52;4.15;;;17.40;99.90;;;;;;5041208;28;20043;-69
2023/07/22 08:59:47;;;;;;;7.55;4.47;;;17.50;99.90;;;;;;5040363;28;20036;-70
2023/07/22 09:02:14;;;;;;;8.45;4.10;;;17.60;99.90;;;;;;5039489;28;20053;-69
2023/07/22 09:04:43;;;;;;;8.57;4.20;;;17.70;99.90;;;;;;5042150;28;20049;-68
2023/07/22 09:07:11;;;;;;;7.70;4.55;;;17.80;99.90;;;;;;5041876;28;20041;-67
2023/07/22 09:09:37;;;;;;;12.18;4.68;;;17.90;99.90;;;;;;5042078;28;20022;-70
2023/07/22 09:12:04;;;;;;;13.00;4.80;;;17.90;99.90;;;;;;5040315;28;20445;-67
2023/07/22 09:14:30;;;;;;;11.05;5.25;;;17.80;99.90;;;;;;5041964;28;20064;-67
2023/07/22 09:16:57;;;;;;;9.45;5.32;;;17.80;99.90;;;;;;5041901;28;20017;-68
2023/07/22 09:19:22;;;;;;;12.20;5.50;;;17.70;99.90;;;;;;5041042;28;20037;-69
2023/07/22 09:21:48;;;;;;;9.10;5.30;;;17.70;99.90;;;;;;5042302;28;20056;-69
2023/07/22 09:24:21;;;;;;;11.70;5.20;;;17.70;99.90;;;;;;5043139;28;20083;-70
2023/07/22 09:26:47;;;;;;;8.88;5.22;;;17.70;99.90;;;;;;5039008;28;20036;-69
2023/07/22 09:29:13;;;;;;;9.68;5.75;;;17.80;99.90;;;;;;5043158;28;20044;-69
2023/07/22 09:31:51;;;;;;;12.00;5.80;;;17.80;99.90;;;;;;5044419;28;20037;-68
2023/07/22 09:34:17;;;;;;;10.68;6.00;;;17.90;99.90;;;;;;5043876;28;20033;-68
2023/07/22 09:36:56;;;;;;;10.98;6.43;;;18.00;99.90;;;;;;5044433;28;20029;-70
2023/07/22 09:39:25;;;;;;;12.10;6.30;;;18.20;99.90;;;;;;5042976;28;20111;-67
2023/07/22 09:41:52;;;;;;;15.93;7.03;;;18.20;99.90;;;;;;5044070;28;20041;-69
2023/07/22 09:44:18;;;;;;;12.68;6.82;;;18.30;99.90;;;;;;5044017;28;20036;-70
2023/07/22 09:46:48;;;;;;;14.90;6.90;;;18.30;99.90;;;;;;5044696;28;20375;-69
2023/07/22 09:49:17;;;;;;;13.73;6.85;;;18.30;99.90;;;;;;5044459;28;20048;-67
2023/07/22 09:51:43;;;;;;;13.40;7.22;;;18.40;99.90;;;;;;5043849;28;20121;-68
2023/07/22 09:54:09;;;;;;;16.73;7.22;;;18.60;99.90;;;;;;5044234;28;20037;-72
2023/07/22 09:56:45;;;;;;;16.23;7.10;;;18.70;99.90;;;;;;5042986;28;20044;-69
2023/07/22 09:59:11;;;;;;;15.13;7.93;;;18.70;99.90;;;;;;5043660;28;20479;-68
2023/07/22 10:01:41;;;;;;;12.48;7.57;;;18.80;99.90;;;;;;5043684;28;20038;-69
2023/07/22 10:04:08;;;;;;;16.45;7.80;;;18.90;99.90;;;;;;5043652;28;20711;-69
2023/07/22 10:06:34;;;;;;;14.52;7.95;;;18.90;99.90;;;;;;5043150;28;20010;-68
2023/07/22 10:09:07;;;;;;;13.85;7.57;;;19.00;99.90;;;;;;5042520;28;20029;-69
2023/07/22 10:11:34;;;;;;;13.82;7.55;;;19.10;99.90;;;;;;5043540;28;20022;-69
2023/07/22 10:14:02;;;;;;;12.90;7.43;;;19.10;99.90;;;;;;5042708;28;21495;-68
2023/07/22 10:16:28;;;;;;;13.70;7.82;;;19.10;99.90;;;;;;5042569;28;20056;-69
2023/07/22 10:18:55;;;;;;;13.65;7.70;;;19.10;99.90;;;;;;5043338;28;20100;-69
2023/07/22 10:21:21;;;;;;;15.63;8.50;;;19.10;99.90;;;;;;5040008;28;20041;-71
2023/07/22 10:23:48;;;;;;;16.42;8.27;;;19.10;99.90;;;;;;5036450;28;20121;-70
2023/07/22 10:26:19;;;;;;;16.17;8.50;;;19.00;99.90;;;;;;5042390;28;20165;-67
2023/07/22 10:28:46;;;;;;;15.88;8.95;;;19.00;99.90;;;;;;5043202;28;20033;-67
2023/07/22 10:31:18;;;;;;;17.38;8.55;;;18.90;99.90;;;;;;5042754;28;20037;-70
2023/07/22 10:33:50;;;;;;;14.38;8.30;;;19.00;99.90;;;;;;5040104;28;20035;-70
2023/07/22 10:36:17;;;;;;;16.67;8.45;;;19.00;99.90;;;;;;5039234;28;20030;-70
2023/07/22 10:38:43;;;;;;;17.88;9.50;;;19.00;99.90;;;;;;5041962;28;20388;-70
2023/07/22 10:41:13;;;;;;;13.00;8.50;;;19.10;99.90;;;;;;5040348;28;20047;-69
2023/07/22 10:43:39;;;;;;;14.40;8.48;;;19.00;99.90;;;;;;5042303;28;20033;-70
2023/07/22 10:46:14;;;;;;;20.77;8.80;;;19.00;99.90;;;;;;5040834;28;20031;-68
2023/07/22 10:48:41;;;;;;;15.13;7.82;;;18.90;99.90;;;;;;5041448;28;20041;-70
2023/07/22 10:51:14;;;;;;;17.20;8.20;;;18.80;99.90;;;;;;5040207;28;21428;-70
2023/07/22 10:53:50;;;;;;;19.05;7.70;;;18.80;99.90;;;;;;5038683;28;20037;-71
2023/07/22 10:56:19;;;;;;;15.40;8.00;;;18.80;99.90;;;;;;5037010;28;20025;-70
2023/07/22 10:58:45;;;;;;;13.38;7.75;;;18.90;99.90;;;;;;5038973;28;20025;-71
2023/07/22 11:01:25;;;;;;;12.75;7.65;;;18.90;99.90;;;;;;5040792;28;20052;-69
2023/07/22 11:04:07;;;;;;;13.02;7.50;;;19.10;99.90;;;;;;5041783;28;20636;-70
2023/07/22 11:06:34;;;;;;;15.05;8.40;;;19.10;99.90;;;;;;5042520;28;20115;-71
2023/07/22 11:09:00;;;;;;;13.93;8.50;;;19.10;99.90;;;;;;5042516;28;20025;-69
2023/07/22 11:11:45;;;;;;;13.18;7.97;;;18.90;99.90;;;;;;5043038;28;20033;-69
2023/07/22 11:14:20;;;;;;;12.95;7.80;;;18.90;99.90;;;;;;5041590;28;20085;-72
2023/07/22 11:16:47;;;;;;;16.63;8.55;;;18.90;99.90;;;;;;5040251;28;20034;-69
2023/07/22 11:19:15;;;;;;;15.82;8.40;;;19.00;99.90;;;;;;5040147;28;20085;-71
2023/07/22 11:21:45;;;;;;;20.15;9.10;;;19.00;99.90;;;;;;5041628;28;20045;-68
2023/07/22 11:24:11;;;;;;;14.60;8.82;;;19.00;99.90;;;;;;5041213;28;20037;-71
2023/07/22 11:26:37;;;;;;;17.02;9.10;;;19.00;99.90;;;;;;5041500;28;20041;-68
2023/07/22 11:29:04;;;;;;;15.35;7.00;;;19.00;99.90;;;;;;5041568;28;20089;-68
2023/07/22 11:31:42;;;;;;;18.38;7.30;;;18.90;99.90;;;;;;5041979;28;20025;-68
2023/07/22 11:34:11;;;;;;;10.15;6.20;;;18.90;99.90;;;;;;5042168;28;20029;-68
2023/07/22 11:36:37;;;;;;;13.32;6.75;;;18.80;99.90;;;;;;5041779;28;20085;-68
2023/07/22 11:39:03;;;;;;;10.55;6.00;;;18.70;99.90;;;;;;5040672;28;20049;-68
2023/07/22 11:41:30;;;;;;;11.35;6.45;;;18.60;99.90;;;;;;5040602;28;20087;-67
2023/07/22 11:44:00;;;;;;;15.82;6.78;;;18.60;99.90;;;;;;5041082;28;20097;-68
2023/07/22 11:46:26;;;;;;;11.98;7.20;;;18.60;99.90;;;;;;5041187;28;20033;-70
2023/07/22 11:48:53;;;;;;;16.25;7.88;;;18.60;99.90;;;;;;5040652;28;20038;-68
2023/07/22 11:51:25;;;;;;;17.73;8.75;;;18.60;99.90;;;;;;5038502;28;20059;-70
2023/07/22 11:53:54;;;;;;;12.70;7.35;;;18.50;99.90;;;;;;5038297;28;20029;-68
2023/07/22 11:56:25;;;;;;;17.05;7.30;;;18.50;99.90;;;;;;5041042;28;20493;-71
2023/07/22 11:58:52;;;;;;;12.90;7.18;;;18.50;99.90;;;;;;5040408;28;20026;-69
2023/07/22 12:01:18;;;;;;;14.27;6.93;;;18.50;99.90;;;;;;5041055;28;20053;-70
2023/07/22 12:03:44;;;;;;;12.88;6.82;;;18.50;99.90;;;;;;5038435;28;20032;-69
2023/07/22 12:06:11;;;;;;;11.38;6.47;;;18.50;99.90;;;;;;5038406;28;20017;-68
2023/07/22 12:08:43;;;;;;;11.10;6.10;;;18.50;99.90;;;;;;5039204;28;20045;-67
2023/07/22 12:11:08;;;;;;;9.15;5.53;;;18.50;99.90;;;;;;5039842;28;20124;-71
2023/07/22 12:13:37;;;;;;;12.43;6.30;;;18.50;99.90;;;;;;5040253;28;20064;-70
2023/07/22 12:16:07;;;;;;;10.50;6.15;;;18.50;99.90;;;;;;5040916;28;20097;-70
2023/07/22 12:18:47;;;;;;;10.75;6.47;;;18.50;99.90;;;;;;5038466;28;20029;-69
2023/07/22 12:21:14;;;;;;;11.27;6.78;;;18.40;99.90;;;;;;5040538;28;20061;-70
2023/07/22 12:23:40;;;;;;;14.90;7.60;;;18.40;99.90;;;;;;5041813;28;20034;-68
2023/07/22 12:26:06;;;;;;;14.85;7.18;;;18.30;99.90;;;;;;5041189;28;20028;-69
2023/07/22 12:28:33;;;;;;;15.77;7.88;;;18.20;99.90;;;;;;5041021;28;20037;-68
2023/07/22 12:30:58;;;;;;;20.45;9.05;;;18.10;99.90;;;;;;5040078;28;20025;-69
2023/07/22 12:33:25;;;;;;;21.45;10.40;;;18.00;99.90;;;;;;5038753;28;20085;-68
2023/07/22 12:35:55;;;;;;;17.92;10.52;;;17.70;99.90;;;;;;5040846;28;20028;-70